Jamestown Regional Airport
KJMS : now visible

Airfield :











YOU CAN JOIN US ON...

 
LOGIN :

Register | Disclaimer

   EN    FR    IT 

 









Legend :    VFR   Marginal VFR   IFR   Intensive IFR   Very Intensive IFR
Visi :
Ceiling :
>= 8 km
>= 3000ft
5 to 8 km
1000 to 3000 ft
1500m to 5 km
500 to 1000 ft
800 to 1500m
200 to 500 ft
< 800m
< 200 ft
Symbols :   Thunderstorms  Fog  Heavy snow  Heavy precipitations  Wind > 20 kt






- Airport Elevation : 1500 ft
- IATA code : JMS


KJMS - Jamestown Regional

CURRENT METAR :
  • 220056Z AUTO 06007KT 10SM CLR 02/M02 A2978 RMK AO2 SLP104 T00171017

EXPIRED METARs :
  • 212356Z AUTO 00000KT 10SM CLR 09/00 A2976 RMK AO2 SLP092 T00890000 10156 20089 53004
  • 212256Z AUTO 00000KT 10SM CLR 13/01 A2975 RMK AO2 SLP087 T01330006
  • 212156Z AUTO 14004KT 10SM CLR 14/00 A2974 RMK AO2 SLP083 T01390000
  • 212056Z AUTO 17006KT 10SM CLR 14/00 A2975 RMK AO2 SLP085 T01440000 58020

TAF KJMS
Valid from the 22 at 00:00 until the 23 at 00:00 UTC


212333Z 2200/2224 VRB03KT P6SM FEW250
FM220400 34007KT P6SM FEW250
FM221300 30013KT P6SM FEW015 SCT025
FM221900 29018G26KT P6SM FEW250
KZMP FIR / North America



MET'MAP, your aeronautical weather chart ! - Copyright ORBIFLY December 2007 - Disclaimer

ORBIFLY MET'MAP TEAM :

Programming & Development : Alexandra Zaïnal
Original concept : Baudouin d'Aumeries
Technical & hardware support : Manuel Goepfert
Assistance : Marc-Olivier Méhu




SOURCES & CREDITS :

   NOAA       Earth
Advisory